EEEI

Ämari Air Base Airport

Keila, Estonia
METAR EEEI 181250Z 27008KT 220V300 9999 SCT050 22/18 Q1014 NOSIG
Observed Flight Rules
Aug-18 @ 12:50 UTC (2 hours ago) Visual Flight Rules
Wind Visibility Clouds
270° at 8 knots 10,000+ meters
  • Scattered at 5,000' AGL
Temperatures Readings
Current 22°C / 72°F
Dewpoint 18°C / 64°F
Humidity 78%
Altimeter 29.94" Hg
Pressure 1014 hPa
Elevation 20
METAR EEEI 181250Z 27008KT 220V300 9999 SCT050 22/18 Q1014 NOSIG
Observed Flight Rules
Aug-18 @ 12:50 UTC
(2 hours ago)
VFR
Wind Visibility
270° at 8 knots 10,000+ meters
Clouds
  • Scattered at 5,000' AGL
Temperature Dewpoint
22°C / 72°F 18°C / 64°F
Humidity Altimeter Pressure
78% 29.94" Hg 1014 hPa